createdAt,value
2019-01-05T08:29:57.265Z,64.76
2019-01-05T08:37:25.032Z,64.74
2019-01-05T08:41:24.668Z,64.62
2019-01-05T08:44:51.106Z,64.67
2019-01-05T08:48:30.449Z,64.64
2019-01-05T08:51:43.501Z,64.57
2019-01-05T08:55:34.809Z,64.54
2019-01-05T08:58:56.974Z,64.38
2019-01-05T09:02:28.080Z,64.36
2019-01-05T09:05:55.756Z,64.36
2019-01-05T09:09:25.350Z,64.25
2019-01-05T09:12:55.046Z,64.24
2019-01-05T09:16:22.599Z,64.09
2019-01-05T09:19:48.435Z,64.07
2019-01-05T09:23:02.220Z,63.89
2019-01-05T09:26:45.045Z,63.92
2019-01-05T09:30:02.271Z,63.93
2019-01-05T09:33:44.067Z,63.80
2019-01-05T09:37:23.389Z,63.77
2019-01-05T09:40:46.821Z,63.79
2019-01-05T09:44:37.256Z,63.77
2019-01-05T09:48:18.075Z,63.82
2019-01-05T09:51:57.594Z,63.78
2019-01-05T09:55:48.175Z,63.64
2019-01-05T09:59:35.552Z,63.48
2019-01-05T10:03:02.198Z,63.50
2019-01-05T10:06:25.982Z,63.19
2019-01-05T10:10:07.869Z,63.48
2019-01-05T10:13:30.372Z,63.50
2019-01-05T10:16:59.810Z,63.49
2019-01-05T10:20:25.900Z,63.58
2019-01-05T10:24:08.457Z,63.56
2019-01-05T10:27:24.731Z,63.67
2019-01-05T10:30:57.708Z,63.64
2019-01-05T10:34:16.371Z,63.51
2019-01-05T10:37:59.189Z,63.63
2019-01-05T10:41:51.060Z,63.53
2019-01-05T10:45:18.008Z,63.50
2019-01-05T10:48:36.976Z,63.59
2019-01-05T10:52:13.560Z,63.58
2019-01-05T10:55:40.280Z,63.62
2019-01-05T10:59:06.255Z,63.51
2019-01-05T11:02:32.176Z,63.48
2019-01-05T11:05:55.495Z,63.41
2019-01-05T11:09:09.374Z,63.19
2019-01-05T11:12:52.175Z,63.28
2019-01-05T11:16:26.446Z,63.32
2019-01-05T11:19:54.748Z,63.17
2019-01-05T11:23:30.389Z,63.21
2019-01-05T11:26:55.658Z,63.00
2019-01-05T11:30:25.169Z,63.11
2019-01-05T11:34:00.943Z,63.15
2019-01-05T11:37:35.248Z,63.21
2019-01-05T11:41:20.412Z,63.15
2019-01-05T11:45:22.478Z,63.29
2019-01-05T11:49:08.103Z,63.29
2019-01-05T11:52:41.519Z,63.25
2019-01-05T11:56:31.787Z,63.11
2019-01-05T12:00:02.756Z,63.17
2019-01-05T12:03:27.935Z,63.19
2019-01-05T12:06:54.016Z,63.22
2019-01-05T12:10:20.642Z,63.27
2019-01-05T12:14:01.632Z,63.12
2019-01-05T12:17:42.963Z,62.98
2019-01-05T12:21:24.316Z,62.86
2019-01-05T12:24:44.787Z,62.89
2019-01-05T12:28:07.915Z,62.71
2019-01-05T12:31:21.632Z,62.58
2019-01-05T12:35:06.044Z,62.76
2019-01-05T12:38:33.717Z,62.61
2019-01-05T12:42:23.593Z,62.53
2019-01-05T12:45:41.147Z,62.60
2019-01-05T12:49:07.801Z,62.50
2019-01-05T12:52:50.259Z,62.53
2019-01-05T12:56:26.932Z,62.33
2019-01-05T13:00:20.004Z,62.32
2019-01-05T13:03:57.023Z,62.48
2019-01-05T13:07:31.405Z,62.54
2019-01-05T13:11:00.072Z,62.45
2019-01-05T13:14:14.135Z,62.35
2019-01-05T13:17:50.859Z,62.47
2019-01-05T13:21:36.349Z,62.53
2019-01-05T13:25:10.185Z,62.45
2019-01-05T13:28:28.728Z,62.55
2019-01-05T13:31:59.902Z,62.51
2019-01-05T13:35:24.876Z,62.57
2019-01-05T13:39:21.049Z,62.61
2019-01-05T13:43:01.955Z,62.68
2019-01-05T13:46:35.961Z,62.68
2019-01-05T13:50:34.238Z,62.69
2019-01-05T13:53:50.106Z,62.60
2019-01-05T13:57:02.722Z,62.59
2019-01-05T13:59:49.193Z,62.56
2019-01-05T14:02:35.997Z,62.70
2019-01-05T14:05:30.552Z,62.67
2019-01-05T14:08:17.464Z,62.78
2019-01-05T14:11:23.462Z,62.88
2019-01-05T14:14:17.982Z,63.07
2019-01-05T14:17:12.387Z,63.03
2019-01-05T14:20:03.287Z,63.05
2019-01-05T14:22:57.291Z,63.05
2019-01-05T14:25:46.497Z,62.89
2019-01-05T14:28:40.724Z,62.81
2019-01-05T14:31:27.223Z,63.85
2019-01-05T14:34:20.845Z,63.06
2019-01-05T14:37:04.776Z,62.86
2019-01-05T17:07:25.681Z,63.33
2019-01-05T17:10:28.844Z,63.21
2019-01-05T17:13:15.483Z,63.21
2019-01-05T17:16:03.866Z,63.30
2019-01-05T17:18:50.533Z,63.20
2019-01-05T17:21:41.455Z,63.11
2019-01-05T17:24:29.634Z,63.29
2019-01-05T17:27:16.364Z,63.21
2019-01-05T17:30:02.904Z,63.13
2019-01-05T17:32:49.574Z,63.12
2019-01-05T17:35:36.192Z,63.18
2019-01-05T17:38:27.280Z,63.26
2019-01-05T17:41:06.108Z,63.26
2019-01-05T17:43:53.101Z,63.34
2019-01-05T17:46:39.815Z,63.31
2019-01-05T17:49:26.341Z,63.23
2019-01-05T17:52:13.072Z,63.25
2019-01-05T17:54:59.724Z,63.28
2019-01-05T17:57:43.124Z,63.37
2019-01-05T18:00:43.411Z,63.38
2019-01-05T18:03:49.776Z,63.34
2019-01-05T18:06:44.846Z,64.68
2019-01-05T18:09:31.196Z,63.72
2019-01-05T18:12:25.370Z,63.38
2019-01-05T18:15:12.202Z,63.17
2019-01-05T18:17:58.843Z,63.10
2019-01-05T18:20:52.806Z,63.04
2019-01-05T18:23:39.238Z,63.15
2019-01-05T18:26:26.060Z,63.07
2019-01-05T18:29:11.678Z,62.95
2019-01-05T18:31:58.114Z,63.01
2019-01-05T18:34:44.651Z,62.89
2019-01-05T18:37:44.584Z,62.91
2019-01-05T18:40:32.588Z,62.95
2019-01-05T18:43:26.692Z,62.85
2019-01-05T18:46:12.929Z,62.89
2019-01-05T18:49:12.884Z,62.85
2019-01-05T18:52:06.806Z,62.95
2019-01-05T18:54:53.275Z,62.91
2019-01-05T18:57:50.375Z,63.01
2019-01-05T19:00:41.566Z,62.98
2019-01-05T19:03:32.764Z,63.10
2019-01-05T19:06:26.718Z,63.24
2019-01-05T19:09:13.128Z,63.27
2019-01-05T19:12:08.379Z,63.04
2019-01-05T19:14:47.807Z,63.19
2019-01-05T19:17:38.819Z,62.97
2019-01-05T19:20:36.163Z,62.72
2019-01-05T19:23:24.872Z,62.78
2019-01-05T19:26:11.729Z,62.72
2019-01-05T19:29:06.167Z,62.64
2019-01-05T19:31:52.605Z,62.69
2019-01-05T19:34:46.634Z,62.68
2019-01-05T19:37:37.459Z,62.68
2019-01-05T19:40:24.820Z,62.67
2019-01-05T19:43:31.122Z,62.73
2019-01-05T19:46:17.498Z,62.52
2019-01-05T19:49:05.939Z,62.62
2019-01-05T19:52:02.720Z,62.70
2019-01-05T19:54:49.149Z,62.68
2019-01-05T19:57:40.611Z,62.65
2019-01-05T20:00:37.723Z,62.64
2019-01-05T20:03:24.155Z,62.75
2019-01-05T20:06:10.877Z,62.73
2019-01-05T20:08:58.884Z,62.85
2019-01-05T20:11:58.888Z,62.87
2019-01-05T20:14:56.081Z,62.84
2019-01-05T20:17:42.555Z,62.76
2019-01-05T20:20:45.848Z,62.69
2019-01-05T20:23:49.048Z,62.77
2019-01-05T20:26:46.400Z,62.68
2019-01-05T20:29:27.839Z,62.51
2019-01-05T20:32:14.305Z,62.62
2019-01-05T20:35:03.448Z,62.68
2019-01-05T20:37:51.517Z,62.68
2019-01-05T20:40:42.580Z,62.72
2019-01-05T20:43:36.659Z,62.61
2019-01-05T20:46:23.312Z,62.83
2019-01-05T20:49:23.505Z,62.87
2019-01-05T20:52:11.528Z,62.88
2019-01-05T20:54:58.072Z,62.95
2019-01-05T20:57:59.386Z,62.92
2019-01-05T21:00:46.180Z,62.93
2019-01-05T21:03:43.381Z,62.97
2019-01-05T21:06:36.404Z,62.93
2019-01-05T21:09:25.424Z,62.97
2019-01-05T21:12:28.427Z,62.89
2019-01-05T21:15:19.243Z,62.86
2019-01-05T21:18:13.038Z,62.92
2019-01-05T21:20:59.701Z,62.93
2019-01-05T21:23:57.952Z,62.80
2019-01-05T21:26:44.376Z,62.92
2019-01-05T21:29:41.419Z,63.02
2019-01-05T21:32:33.021Z,63.01
2019-01-05T21:35:24.229Z,63.07
2019-01-05T21:38:08.169Z,63.00
2019-01-05T21:41:04.459Z,62.89
2019-01-05T21:43:52.511Z,62.97
2019-01-05T21:46:40.608Z,62.92
2019-01-05T21:49:43.750Z,62.86
2019-01-05T21:52:30.207Z,62.87
2019-01-05T21:55:21.250Z,62.93
2019-01-05T21:58:08.984Z,62.92
2019-01-05T22:01:15.240Z,62.89
2019-01-05T22:04:09.197Z,62.80
2019-01-05T22:06:56.011Z,62.86
2019-01-05T22:09:42.404Z,62.89
2019-01-05T22:12:31.239Z,62.87
2019-01-05T22:15:25.143Z,63.04
2019-01-05T22:18:25.367Z,63.02
2019-01-05T22:21:31.631Z,63.08
2019-01-05T22:24:18.158Z,63.00
2019-01-05T22:27:15.286Z,63.19
2019-01-05T22:30:06.199Z,63.21
2019-01-05T22:32:54.294Z,63.24
2019-01-05T22:35:45.357Z,63.23
2019-01-05T22:38:32.001Z,63.17
2019-01-05T22:41:18.704Z,63.11
2019-01-05T22:44:18.747Z,63.28
2019-01-05T22:47:05.927Z,63.28
2019-01-05T22:50:00.157Z,63.28
2019-01-05T22:52:51.227Z,63.21
2019-01-05T22:55:45.405Z,63.40
2019-01-05T22:58:31.820Z,63.33
2019-01-05T23:01:19.857Z,63.27
2019-01-05T23:04:11.089Z,63.23
